Time;durP1;ratioP1;P1;durP2;ratioP2;P2;SDS_P1;SDS_P2;PMS_P1;PMS_P2;Temp;Humidity;BMP_temperature;BMP_pressure;BME280_temperature;BME280_humidity;BME280_pressure;Samples;Min_cycle;Max_cycle;Signal;HPM_P1;HPM_P2
2022/06/24 00:00:08;;;;;;;21.65;14.60;;;;;;;;;;5070314;28;20091;-75
2022/06/24 00:02:35;;;;;;;20.85;14.95;;;;;;;;;;5054498;28;20048;-75
2022/06/24 00:05:03;;;;;;;28.90;16.95;;;;;;;;;;5054233;28;20036;-75
2022/06/24 00:07:31;;;;;;;20.45;16.33;;;;;;;;;;5054307;28;20448;-74
2022/06/24 00:09:57;;;;;;;26.35;17.05;;;;;;;;;;5053427;28;20048;-73
2022/06/24 00:12:26;;;;;;;17.95;12.32;;;;;;;;;;5070845;28;20048;-74
2022/06/24 00:15:00;;;;;;;18.50;14.02;;;;;;;;;;5053935;28;20044;-74
2022/06/24 00:17:30;;;;;;;22.80;17.00;;;;;;;;;;5071822;28;20075;-74
2022/06/24 00:20:04;;;;;;;22.15;16.25;;;;;;;;;;5069973;28;20044;-74
2022/06/24 00:22:31;;;;;;;20.85;16.92;;;;;;;;;;5070633;28;20075;-74
2022/06/24 00:25:12;;;;;;;19.95;17.13;;;;;;;;;;5070492;28;20044;-74
2022/06/24 00:27:39;;;;;;;18.92;13.93;;;;;;;;;;5070384;28;20079;-74
2022/06/24 00:30:15;;;;;;;17.55;12.73;;;;;;;;;;5062768;28;20489;-74
2022/06/24 00:32:42;;;;;;;21.80;16.30;;;;;;;;;;5070525;28;20049;-74
2022/06/24 00:35:12;;;;;;;20.27;15.75;;;;;;;;;;5070326;28;20554;-74
2022/06/24 00:37:39;;;;;;;18.08;13.93;;;;;;;;;;5070256;28;20044;-74
2022/06/24 00:40:11;;;;;;;17.13;13.98;;;;;;;;;;5069762;28;20052;-74
2022/06/24 00:42:38;;;;;;;18.77;15.13;;;;;;;;;;5069918;28;20036;-74
2022/06/24 00:45:11;;;;;;;18.77;15.05;;;;;;;;;;5070113;28;20497;-74
2022/06/24 00:47:37;;;;;;;17.65;13.73;;;;;;;;;;5071219;28;20064;-74
2022/06/24 00:50:06;;;;;;;24.70;15.85;;;;;;;;;;5059404;28;20040;-74
2022/06/24 00:52:37;;;;;;;16.92;13.20;;;;;;;;;;5066591;28;20541;-74
2022/06/24 00:55:03;;;;;;;25.08;18.42;;;;;;;;;;5069821;28;20032;-74
2022/06/24 00:57:35;;;;;;;22.73;18.05;;;;;;;;;;5053267;28;20133;-74
2022/06/24 01:00:01;;;;;;;24.83;18.70;;;;;;;;;;5069744;28;20485;-74
2022/06/24 01:02:27;;;;;;;23.38;16.65;;;;;;;;;;5069936;28;20658;-74
2022/06/24 01:05:03;;;;;;;18.20;15.32;;;;;;;;;;5069990;28;20080;-74
2022/06/24 01:07:30;;;;;;;18.90;13.82;;;;;;;;;;5070056;28;20055;-74
2022/06/24 01:09:56;;;;;;;19.35;14.65;;;;;;;;;;5068784;28;20049;-74
2022/06/24 01:12:22;;;;;;;21.38;14.70;;;;;;;;;;5068922;28;20147;-74
2022/06/24 01:14:48;;;;;;;23.48;17.73;;;;;;;;;;5052866;28;20056;-74
2022/06/24 01:17:14;;;;;;;21.48;16.63;;;;;;;;;;5069556;28;20036;-74
2022/06/24 01:19:40;;;;;;;23.30;18.42;;;;;;;;;;5069722;28;20051;-74
2022/06/24 01:22:06;;;;;;;23.85;17.40;;;;;;;;;;5069229;28;20115;-74
2022/06/24 01:24:32;;;;;;;22.73;17.75;;;;;;;;;;5069374;28;20044;-74
2022/06/24 01:26:58;;;;;;;23.10;17.58;;;;;;;;;;5052440;28;20091;-74
2022/06/24 01:29:25;;;;;;;22.50;16.35;;;;;;;;;;5064682;28;20037;-74
2022/06/24 01:31:53;;;;;;;21.25;16.40;;;;;;;;;;5068155;28;20091;-74
2022/06/24 01:34:20;;;;;;;22.42;17.73;;;;;;;;;;5069145;28;20102;-74
2022/06/24 01:36:47;;;;;;;22.55;17.83;;;;;;;;;;5053011;28;20135;-74
2022/06/24 01:39:13;;;;;;;25.67;18.35;;;;;;;;;;5069348;28;20040;-74
2022/06/24 01:41:39;;;;;;;24.65;18.08;;;;;;;;;;5069541;28;20135;-74
2022/06/24 01:44:06;;;;;;;24.63;18.88;;;;;;;;;;5052601;28;20085;-74
2022/06/24 01:46:32;;;;;;;26.17;18.92;;;;;;;;;;5069553;28;20040;-74
2022/06/24 01:48:58;;;;;;;25.48;19.65;;;;;;;;;;5052763;28;20036;-74
2022/06/24 01:51:25;;;;;;;27.75;19.70;;;;;;;;;;5069611;28;20500;-74
2022/06/24 01:53:52;;;;;;;27.80;19.88;;;;;;;;;;5069594;28;20037;-74
2022/06/24 01:56:18;;;;;;;28.08;19.65;;;;;;;;;;5070355;28;20040;-74
2022/06/24 01:58:45;;;;;;;25.05;19.77;;;;;;;;;;5052546;28;20126;-74
2022/06/24 02:01:11;;;;;;;25.00;20.58;;;;;;;;;;5058151;28;20041;-74
2022/06/24 02:03:40;;;;;;;26.83;18.58;;;;;;;;;;5022665;28;20049;-74
2022/06/24 02:06:07;;;;;;;25.48;20.13;;;;;;;;;;5048452;28;20122;-74
2022/06/24 02:08:34;;;;;;;26.00;20.85;;;;;;;;;;5050455;28;20045;-74
2022/06/24 02:13:46;;;;;;;27.57;22.37;;;;;;;;;;5038611;28;20056;-74
2022/06/24 02:16:12;;;;;;;25.67;21.67;;;;;;;;;;5048911;28;20358;-74
2022/06/24 02:18:39;;;;;;;32.78;23.33;;;;;;;;;;5049005;28;20046;-74
2022/06/24 02:21:05;;;;;;;30.02;22.17;;;;;;;;;;5048802;28;20416;-74
2022/06/24 02:23:31;;;;;;;31.45;21.20;;;;;;;;;;5035839;28;20037;-74
2022/06/24 02:25:57;;;;;;;30.67;22.75;;;;;;;;;;5020286;28;20425;-74
2022/06/24 02:28:24;;;;;;;31.27;22.77;;;;;;;;;;5052160;28;20120;-74
2022/06/24 02:30:52;;;;;;;27.40;19.55;;;;;;;;;;5052438;28;20041;-74
2022/06/24 02:33:18;;;;;;;28.95;21.05;;;;;;;;;;5052112;28;20053;-74
2022/06/24 02:35:45;;;;;;;25.17;19.27;;;;;;;;;;5052648;28;20051;-74
2022/06/24 02:38:11;;;;;;;25.52;19.08;;;;;;;;;;5035674;28;20033;-74
2022/06/24 02:40:46;;;;;;;27.10;20.20;;;;;;;;;;5035816;28;20076;-74
2022/06/24 02:43:14;;;;;;;25.77;20.10;;;;;;;;;;5051736;28;20075;-74
2022/06/24 02:45:41;;;;;;;25.75;18.30;;;;;;;;;;5070197;28;20056;-74
2022/06/24 02:48:07;;;;;;;24.65;20.00;;;;;;;;;;5072122;28;20048;-74
2022/06/24 02:50:47;;;;;;;26.02;19.08;;;;;;;;;;5072033;28;20052;-74
2022/06/24 02:53:17;;;;;;;25.23;19.52;;;;;;;;;;5055096;28;20051;-74
2022/06/24 02:55:47;;;;;;;24.23;18.48;;;;;;;;;;5072718;28;20505;-74
2022/06/24 02:58:13;;;;;;;27.65;19.15;;;;;;;;;;5071948;28;20120;-74
2022/06/24 03:00:41;;;;;;;27.77;19.88;;;;;;;;;;5072275;28;20541;-74
2022/06/24 03:03:07;;;;;;;25.40;19.08;;;;;;;;;;5055227;28;20131;-74
2022/06/24 03:05:33;;;;;;;30.15;19.45;;;;;;;;;;5055729;28;20441;-74
2022/06/24 03:07:59;;;;;;;26.80;20.27;;;;;;;;;;5073660;28;20040;-74
2022/06/24 03:10:25;;;;;;;26.83;19.67;;;;;;;;;;5073153;28;20045;-76
2022/06/24 03:12:51;;;;;;;29.40;20.35;;;;;;;;;;5071835;28;20051;-76
2022/06/24 03:15:18;;;;;;;22.63;16.27;;;;;;;;;;5071434;28;20515;-75
2022/06/24 03:17:44;;;;;;;28.65;19.80;;;;;;;;;;5072044;28;20090;-74
2022/06/24 03:20:10;;;;;;;27.58;18.75;;;;;;;;;;5073121;28;20094;-74
2022/06/24 03:22:37;;;;;;;23.15;18.98;;;;;;;;;;5072023;28;20147;-74
2022/06/24 03:25:07;;;;;;;26.25;19.58;;;;;;;;;;5055552;28;20048;-75
2022/06/24 03:27:34;;;;;;;25.60;18.80;;;;;;;;;;5071826;28;20374;-75
2022/06/24 03:30:00;;;;;;;23.30;17.92;;;;;;;;;;5067640;28;20497;-75
2022/06/24 03:32:26;;;;;;;26.77;20.83;;;;;;;;;;5071466;28;20501;-74
2022/06/24 03:34:52;;;;;;;28.15;19.45;;;;;;;;;;5070637;28;20036;-74
2022/06/24 03:37:19;;;;;;;28.17;18.65;;;;;;;;;;5054256;28;20047;-75
2022/06/24 03:39:45;;;;;;;18.13;14.15;;;;;;;;;;5054689;28;20465;-75
2022/06/24 03:42:11;;;;;;;15.23;10.07;;;;;;;;;;5054450;28;20094;-75
2022/06/24 03:44:37;;;;;;;11.57;9.05;;;;;;;;;;5071144;28;20040;-75
2022/06/24 03:47:03;;;;;;;20.15;7.95;;;;;;;;;;5071294;28;20085;-75
2022/06/24 03:49:29;;;;;;;11.27;6.40;;;;;;;;;;5053984;28;20036;-75
2022/06/24 03:51:55;;;;;;;9.30;6.00;;;;;;;;;;5071843;28;20057;-75
2022/06/24 03:54:22;;;;;;;7.45;5.55;;;;;;;;;;5071022;28;20067;-74
2022/06/24 03:56:48;;;;;;;8.52;5.47;;;;;;;;;;5071211;28;20040;-75
2022/06/24 03:59:14;;;;;;;7.82;5.38;;;;;;;;;;5070569;28;20040;-74
2022/06/24 04:01:40;;;;;;;7.15;4.72;;;;;;;;;;5052272;28;20111;-74
2022/06/24 04:04:06;;;;;;;7.70;4.80;;;;;;;;;;5045989;28;20043;-74
2022/06/24 04:06:32;;;;;;;6.25;4.65;;;;;;;;;;5050139;28;20620;-75
2022/06/24 04:08:59;;;;;;;8.48;4.60;;;;;;;;;;5034310;28;20041;-75
2022/06/24 04:11:25;;;;;;;6.43;4.63;;;;;;;;;;5050030;28;20120;-74
2022/06/24 04:13:51;;;;;;;8.45;4.75;;;;;;;;;;5050790;28;20033;-75
2022/06/24 04:16:17;;;;;;;8.82;5.53;;;;;;;;;;5050488;28;20049;-75
2022/06/24 04:18:43;;;;;;;7.25;5.10;;;;;;;;;;5052259;28;20440;-75
2022/06/24 04:21:13;;;;;;;7.13;5.18;;;;;;;;;;5033948;28;20123;-75
2022/06/24 04:23:39;;;;;;;8.88;5.70;;;;;;;;;;5050031;28;20044;-75
2022/06/24 04:26:05;;;;;;;7.63;5.60;;;;;;;;;;5050214;28;20087;-75
2022/06/24 04:28:31;;;;;;;8.85;5.70;;;;;;;;;;5051742;28;20033;-74
2022/06/24 04:30:57;;;;;;;7.55;5.47;;;;;;;;;;5083622;28;20119;-74
2022/06/24 04:33:23;;;;;;;9.82;5.78;;;;;;;;;;5083401;28;20040;-74
2022/06/24 04:35:49;;;;;;;7.03;5.25;;;;;;;;;;5050351;28;20082;-75
2022/06/24 04:38:16;;;;;;;6.35;5.40;;;;;;;;;;5050487;28;20037;-75
2022/06/24 04:40:42;;;;;;;14.65;5.45;;;;;;;;;;5051628;28;20508;-75
2022/06/24 04:43:08;;;;;;;14.85;6.65;;;;;;;;;;5051721;28;20076;-75
2022/06/24 04:45:34;;;;;;;9.35;5.93;;;;;;;;;;5049717;28;20036;-75
2022/06/24 04:48:01;;;;;;;9.63;5.65;;;;;;;;;;5050248;28;20674;-74
2022/06/24 04:50:27;;;;;;;8.27;5.90;;;;;;;;;;5032833;28;20056;-73
2022/06/24 04:52:54;;;;;;;11.63;6.90;;;;;;;;;;5061877;28;20098;-73
2022/06/24 04:55:21;;;;;;;9.32;6.63;;;;;;;;;;5053001;28;20064;-73
2022/06/24 04:57:47;;;;;;;7.82;5.88;;;;;;;;;;5069876;28;20047;-73
2022/06/24 05:00:13;;;;;;;10.07;5.93;;;;;;;;;;5069624;28;20127;-74
2022/06/24 05:02:41;;;;;;;10.18;6.03;;;;;;;;;;5069664;28;20149;-73
2022/06/24 05:05:07;;;;;;;7.97;5.28;;;;;;;;;;5070038;28;20072;-73
2022/06/24 05:07:33;;;;;;;7.97;5.15;;;;;;;;;;5053144;28;20041;-74
2022/06/24 05:09:59;;;;;;;7.90;5.40;;;;;;;;;;5069520;28;20072;-73
2022/06/24 05:12:26;;;;;;;9.02;5.40;;;;;;;;;;5069034;28;20044;-74
2022/06/24 05:14:52;;;;;;;7.10;5.13;;;;;;;;;;5070035;28;20059;-73
2022/06/24 05:17:18;;;;;;;6.80;4.70;;;;;;;;;;5070101;28;20427;-73
2022/06/24 05:19:44;;;;;;;8.43;4.88;;;;;;;;;;5070663;28;20572;-73
2022/06/24 05:22:10;;;;;;;7.97;4.65;;;;;;;;;;5069320;28;20174;-73
2022/06/24 05:24:36;;;;;;;6.70;5.10;;;;;;;;;;5069403;28;20047;-74
2022/06/24 05:27:03;;;;;;;8.85;5.53;;;;;;;;;;5069747;28;20036;-73
2022/06/24 05:29:29;;;;;;;7.63;4.90;;;;;;;;;;5063489;28;20072;-74
2022/06/24 05:31:55;;;;;;;8.18;4.97;;;;;;;;;;5060177;28;20633;-73
2022/06/24 05:34:21;;;;;;;7.05;5.10;;;;;;;;;;5052655;28;20041;-73
2022/06/24 05:36:47;;;;;;;6.93;5.28;;;;;;;;;;5070022;28;20045;-73
2022/06/24 05:39:13;;;;;;;7.78;5.20;;;;;;;;;;5052592;28;20037;-73
2022/06/24 05:41:40;;;;;;;6.55;5.38;;;;;;;;;;5068787;28;20033;-73
2022/06/24 05:44:07;;;;;;;7.70;5.10;;;;;;;;;;5069170;28;20512;-73
2022/06/24 05:46:33;;;;;;;5.88;4.93;;;;;;;;;;5051968;28;20063;-73
2022/06/24 05:48:59;;;;;;;8.50;5.18;;;;;;;;;;5052173;28;20045;-74
2022/06/24 05:51:25;;;;;;;7.32;5.45;;;;;;;;;;5068663;28;20452;-73
2022/06/24 05:56:37;;;;;;;8.02;5.63;;;;;;;;;;5068956;28;20052;-74
2022/06/24 05:59:04;;;;;;;7.43;5.35;;;;;;;;;;5073039;28;20072;-74
2022/06/24 06:01:30;;;;;;;6.78;5.45;;;;;;;;;;5073818;28;20119;-74
2022/06/24 06:03:56;;;;;;;9.02;6.10;;;;;;;;;;5072428;28;20044;-74
2022/06/24 06:06:23;;;;;;;7.95;5.78;;;;;;;;;;5056147;28;20048;-73
2022/06/24 06:08:49;;;;;;;9.77;6.38;;;;;;;;;;5073492;28;20072;-73
2022/06/24 06:11:23;;;;;;;8.15;6.13;;;;;;;;;;5072359;28;20040;-74
2022/06/24 06:13:50;;;;;;;9.10;6.53;;;;;;;;;;5072297;28;20033;-73
2022/06/24 06:16:17;;;;;;;8.98;6.88;;;;;;;;;;5073518;28;20102;-74
2022/06/24 06:18:43;;;;;;;8.43;6.93;;;;;;;;;;5071312;28;20042;-74
2022/06/24 06:21:10;;;;;;;9.40;7.10;;;;;;;;;;5072546;28;20048;-73
2022/06/24 06:23:37;;;;;;;10.30;7.60;;;;;;;;;;5055655;28;20389;-73
2022/06/24 06:26:04;;;;;;;10.60;8.18;;;;;;;;;;5073768;28;20044;-73
2022/06/24 06:28:30;;;;;;;10.88;8.27;;;;;;;;;;5055511;28;20047;-73
2022/06/24 06:30:57;;;;;;;10.57;8.38;;;;;;;;;;5069047;28;20048;-73
2022/06/24 06:33:23;;;;;;;14.35;8.73;;;;;;;;;;5038932;28;20101;-74
2022/06/24 06:35:49;;;;;;;11.82;8.55;;;;;;;;;;5055023;28;20032;-74
2022/06/24 06:38:15;;;;;;;13.82;9.27;;;;;;;;;;5052398;28;20498;-74
2022/06/24 06:40:41;;;;;;;12.77;9.48;;;;;;;;;;5065482;28;20063;-74
2022/06/24 06:43:09;;;;;;;13.77;9.63;;;;;;;;;;5072244;28;20136;-74
2022/06/24 06:45:35;;;;;;;12.13;9.88;;;;;;;;;;5072007;28;20048;-74
2022/06/24 06:48:02;;;;;;;11.70;9.13;;;;;;;;;;5072108;28;20481;-73
2022/06/24 06:50:28;;;;;;;14.52;9.35;;;;;;;;;;5042399;28;20048;-74
2022/06/24 06:52:54;;;;;;;13.13;8.60;;;;;;;;;;5055315;28;20044;-74
2022/06/24 06:55:20;;;;;;;12.70;8.45;;;;;;;;;;5054978;28;20123;-74
2022/06/24 06:57:46;;;;;;;12.38;8.48;;;;;;;;;;5070001;28;20684;-74
2022/06/24 07:00:13;;;;;;;11.38;8.00;;;;;;;;;;5051813;28;20042;-74
2022/06/24 07:02:39;;;;;;;11.60;8.35;;;;;;;;;;5069323;28;20052;-74
2022/06/24 07:05:06;;;;;;;11.43;7.03;;;;;;;;;;5071852;28;20401;-74
2022/06/24 07:07:32;;;;;;;12.10;7.95;;;;;;;;;;5051689;28;20562;-74
2022/06/24 07:09:58;;;;;;;11.38;7.95;;;;;;;;;;5070149;28;20033;-74
2022/06/24 07:12:25;;;;;;;9.45;5.95;;;;;;;;;;5071323;28;20036;-74
2022/06/24 07:14:51;;;;;;;9.20;6.05;;;;;;;;;;5070921;28;20039;-74
2022/06/24 07:17:17;;;;;;;6.95;6.05;;;;;;;;;;5054864;28;20041;-74
2022/06/24 07:19:44;;;;;;;7.53;5.57;;;;;;;;;;5071008;28;20538;-73
2022/06/24 07:22:10;;;;;;;8.13;4.72;;;;;;;;;;5072598;28;20080;-74
2022/06/24 07:24:36;;;;;;;7.28;5.15;;;;;;;;;;5067774;28;20037;-73
2022/06/24 07:27:03;;;;;;;7.10;4.68;;;;;;;;;;5072673;28;20408;-74
2022/06/24 07:29:33;;;;;;;6.35;4.43;;;;;;;;;;5065385;28;20040;-73
2022/06/24 07:31:59;;;;;;;8.85;5.25;;;;;;;;;;5060097;28;20052;-74
2022/06/24 07:34:26;;;;;;;6.53;4.88;;;;;;;;;;5067543;28;20547;-74
2022/06/24 07:36:52;;;;;;;7.22;5.43;;;;;;;;;;5071672;28;20133;-73
2022/06/24 07:39:18;;;;;;;9.10;6.32;;;;;;;;;;5048192;28;20029;-74
2022/06/24 07:41:45;;;;;;;10.45;6.90;;;;;;;;;;5047098;28;20036;-73
2022/06/24 07:44:11;;;;;;;7.28;4.65;;;;;;;;;;5070995;28;20528;-74
2022/06/24 07:46:37;;;;;;;6.95;4.85;;;;;;;;;;5053903;28;20942;-73
2022/06/24 07:49:03;;;;;;;8.48;4.50;;;;;;;;;;5070804;28;20545;-74
2022/06/24 07:51:29;;;;;;;8.07;4.57;;;;;;;;;;5037656;28;20487;-73
2022/06/24 07:53:55;;;;;;;6.38;4.35;;;;;;;;;;5070799;28;20041;-74
2022/06/24 07:59:06;;;;;;;7.40;4.53;;;;;;;;;;5070645;28;20047;-74
2022/06/24 08:01:33;;;;;;;7.50;4.90;;;;;;;;;;5071037;28;20449;-73
2022/06/24 08:03:59;;;;;;;7.45;5.00;;;;;;;;;;5037267;28;20045;-74
2022/06/24 08:06:25;;;;;;;7.05;4.60;;;;;;;;;;5048539;28;20045;-73
2022/06/24 08:08:52;;;;;;;9.60;5.28;;;;;;;;;;5069933;28;20044;-74
2022/06/24 08:11:18;;;;;;;8.45;5.70;;;;;;;;;;5043320;28;20033;-74
2022/06/24 08:13:44;;;;;;;8.23;5.05;;;;;;;;;;5062111;28;20064;-74
2022/06/24 08:16:10;;;;;;;9.85;5.32;;;;;;;;;;5074450;28;20045;-74
2022/06/24 08:18:36;;;;;;;17.30;6.20;;;;;;;;;;5067683;28;20037;-75
2022/06/24 08:21:02;;;;;;;9.85;5.95;;;;;;;;;;5037422;28;20055;-75
2022/06/24 08:23:29;;;;;;;12.52;5.68;;;;;;;;;;5071794;28;20044;-75
2022/06/24 08:25:55;;;;;;;8.77;3.20;;;;;;;;;;5069901;28;20047;-76
2022/06/24 08:28:21;;;;;;;5.60;2.47;;;;;;;;;;5043655;28;20106;-76
2022/06/24 08:30:47;;;;;;;7.35;3.10;;;;;;;;;;5051779;28;20110;-75
2022/06/24 08:33:13;;;;;;;4.03;2.55;;;;;;;;;;5069359;28;20044;-75
2022/06/24 08:35:39;;;;;;;6.35;2.80;;;;;;;;;;5052826;28;20040;-75
2022/06/24 08:38:05;;;;;;;6.15;2.97;;;;;;;;;;5020110;28;20044;-74
2022/06/24 08:40:31;;;;;;;6.82;3.60;;;;;;;;;;5069724;28;20044;-74
2022/06/24 08:43:00;;;;;;;6.57;3.83;;;;;;;;;;5069535;28;20124;-74
2022/06/24 08:45:26;;;;;;;6.20;3.90;;;;;;;;;;5061702;28;20489;-74
2022/06/24 08:47:52;;;;;;;7.68;4.05;;;;;;;;;;5060694;28;20072;-75
2022/06/24 08:50:19;;;;;;;8.77;4.40;;;;;;;;;;5066285;28;20083;-76
2022/06/24 08:52:49;;;;;;;7.38;3.67;;;;;;;;;;5049214;28;20053;-75
2022/06/24 08:55:16;;;;;;;5.90;3.67;;;;;;;;;;5039442;28;20041;-75
2022/06/24 08:57:43;;;;;;;6.30;3.58;;;;;;;;;;5069692;28;20041;-74
2022/06/24 09:00:09;;;;;;;7.43;3.35;;;;;;;;;;5069819;28;20516;-75
2022/06/24 09:02:35;;;;;;;6.05;3.40;;;;;;;;;;5056620;28;20044;-74
2022/06/24 09:05:08;;;;;;;5.45;3.47;;;;;;;;;;5053320;28;20051;-74
2022/06/24 09:07:34;;;;;;;5.75;2.90;;;;;;;;;;5051337;28;20039;-74
2022/06/24 09:10:03;;;;;;;6.05;3.00;;;;;;;;;;5051686;28;20043;-74
2022/06/24 09:12:39;;;;;;;5.93;3.20;;;;;;;;;;5082178;28;20037;-75
2022/06/24 09:15:06;;;;;;;6.22;2.67;;;;;;;;;;5036824;28;20130;-74
2022/06/24 09:17:32;;;;;;;5.93;3.08;;;;;;;;;;5057697;28;20062;-74
2022/06/24 09:20:08;;;;;;;6.30;3.08;;;;;;;;;;5056168;28;20048;-74
2022/06/24 09:22:35;;;;;;;5.22;2.75;;;;;;;;;;5036071;28;20033;-74
2022/06/24 09:25:01;;;;;;;5.40;2.75;;;;;;;;;;5070398;28;20040;-74
2022/06/24 09:27:27;;;;;;;4.03;2.67;;;;;;;;;;5065112;28;20043;-74
2022/06/24 09:29:53;;;;;;;4.55;2.47;;;;;;;;;;5049069;28;20497;-74
2022/06/24 09:32:20;;;;;;;3.67;2.40;;;;;;;;;;5050249;28;20481;-74
2022/06/24 09:35:03;;;;;;;4.20;2.42;;;;;;;;;;5055913;28;20044;-74
2022/06/24 09:37:45;;;;;;;3.53;2.30;;;;;;;;;;5073116;28;20044;-74
2022/06/24 09:40:14;;;;;;;4.35;2.40;;;;;;;;;;5094898;28;20443;-74
2022/06/24 09:42:40;;;;;;;5.22;2.40;;;;;;;;;;5069499;28;20127;-74
2022/06/24 09:45:07;;;;;;;4.43;2.80;;;;;;;;;;5036065;28;20052;-74
2022/06/24 09:47:38;;;;;;;5.47;3.05;;;;;;;;;;5056529;28;20069;-74
2022/06/24 09:50:05;;;;;;;4.85;2.90;;;;;;;;;;5072591;28;20127;-74
2022/06/24 09:52:31;;;;;;;6.53;2.97;;;;;;;;;;5072828;28;20060;-74
2022/06/24 09:54:58;;;;;;;5.18;3.15;;;;;;;;;;5072927;28;20052;-74
2022/06/24 09:57:24;;;;;;;4.82;2.90;;;;;;;;;;5073201;28;20523;-73
2022/06/24 10:02:36;;;;;;;4.68;2.88;;;;;;;;;;5045862;28;20048;-74
2022/06/24 10:05:03;;;;;;;4.45;3.10;;;;;;;;;;5072304;28;20116;-74
2022/06/24 10:07:32;;;;;;;6.63;2.95;;;;;;;;;;5072630;28;20052;-74
2022/06/24 10:09:59;;;;;;;4.20;3.03;;;;;;;;;;5062036;28;20036;-73
2022/06/24 10:12:26;;;;;;;5.88;3.55;;;;;;;;;;5068296;28;20044;-76
2022/06/24 10:14:52;;;;;;;5.22;3.40;;;;;;;;;;5073597;28;20055;-74
2022/06/24 10:17:19;;;;;;;5.80;3.97;;;;;;;;;;5055384;28;20044;-74
2022/06/24 10:19:46;;;;;;;5.97;3.75;;;;;;;;;;5037298;28;20037;-74
2022/06/24 10:22:31;;;;;;;6.13;4.45;;;;;;;;;;5071082;28;20033;-74
2022/06/24 10:24:57;;;;;;;;;;;;;;;;;;5044666;28;20484;-74
2022/06/24 10:27:43;;;;;;;6.03;4.93;;;;;;;;;;5072607;28;19970;-74
2022/06/24 10:30:09;;;;;;;;;;;;;;;;;;5055122;28;20055;-74
2022/06/24 10:32:35;;;;;;;9.32;6.35;;;;;;;;;;5072219;28;19917;-74
2022/06/24 10:35:05;;;;;;;10.10;7.50;;;;;;;;;;5072298;28;20114;-74
2022/06/24 10:37:33;;;;;;;11.00;6.53;;;;;;;;;;5071937;28;20447;-74
2022/06/24 10:40:00;;;;;;;11.68;7.85;;;;;;;;;;5038832;28;20477;-74
2022/06/24 10:42:26;;;;;;;10.85;8.15;;;;;;;;;;5055331;28;20162;-74
2022/06/24 10:45:00;;;;;;;11.68;8.18;;;;;;;;;;5072485;28;20515;-75
2022/06/24 10:47:36;;;;;;;10.07;8.18;;;;;;;;;;5072117;28;20044;-74
2022/06/24 10:50:02;;;;;;;11.75;8.30;;;;;;;;;;5090243;28;20473;-74
2022/06/24 10:52:33;;;;;;;9.10;7.85;;;;;;;;;;5055395;28;20048;-74
2022/06/24 10:55:17;;;;;;;10.23;8.38;;;;;;;;;;5071549;28;20044;-74
2022/06/24 10:57:44;;;;;;;12.25;8.98;;;;;;;;;;5072128;28;20509;-74
2022/06/24 11:00:14;;;;;;;13.50;8.55;;;;;;;;;;5071855;28;20117;-74
2022/06/24 11:02:40;;;;;;;13.52;10.10;;;;;;;;;;5040959;28;20041;-74
2022/06/24 11:05:10;;;;;;;12.20;10.07;;;;;;;;;;5064941;28;20389;-74
2022/06/24 11:07:44;;;;;;;12.57;11.02;;;;;;;;;;5050103;28;20512;-75
2022/06/24 11:10:20;;;;;;;15.55;12.88;;;;;;;;;;5051240;28;20052;-74
2022/06/24 11:12:51;;;;;;;15.27;11.48;;;;;;;;;;5050150;28;20405;-74
2022/06/24 11:15:17;;;;;;;14.90;12.68;;;;;;;;;;5063987;28;20131;-74
2022/06/24 11:17:44;;;;;;;15.90;13.30;;;;;;;;;;5069621;28;20055;-74
2022/06/24 11:20:10;;;;;;;15.70;13.88;;;;;;;;;;5070009;28;20090;-74
2022/06/24 11:22:47;;;;;;;14.32;12.02;;;;;;;;;;5072787;28;20044;-74
2022/06/24 11:25:14;;;;;;;14.05;11.82;;;;;;;;;;5067694;28;20490;-74
2022/06/24 11:27:40;;;;;;;14.95;12.10;;;;;;;;;;5100751;28;20055;-74
2022/06/24 11:30:08;;;;;;;11.25;9.50;;;;;;;;;;5066985;28;20048;-75
2022/06/24 11:32:54;;;;;;;14.40;10.63;;;;;;;;;;5071479;28;20508;-74
2022/06/24 11:35:20;;;;;;;12.07;10.35;;;;;;;;;;5070764;28;20177;-74
2022/06/24 11:37:47;;;;;;;12.98;9.68;;;;;;;;;;5070746;28;20039;-75
2022/06/24 11:40:20;;;;;;;14.35;9.85;;;;;;;;;;5070462;28;20133;-75
2022/06/24 11:42:46;;;;;;;16.25;9.80;;;;;;;;;;5070660;28;20067;-75
2022/06/24 11:45:13;;;;;;;11.35;9.70;;;;;;;;;;5054620;28;20393;-75
2022/06/24 11:47:39;;;;;;;13.52;10.18;;;;;;;;;;5070758;28;20048;-77
2022/06/24 11:50:05;;;;;;;11.05;9.82;;;;;;;;;;5071576;28;20054;-74
2022/06/24 11:52:49;;;;;;;12.02;10.35;;;;;;;;;;5070280;28;20051;-75
2022/06/24 11:55:23;;;;;;;13.70;9.75;;;;;;;;;;5058355;28;20047;-74
2022/06/24 11:57:53;;;;;;;13.82;10.23;;;;;;;;;;5083895;28;20193;-75
2022/06/24 12:00:19;;;;;;;11.55;9.35;;;;;;;;;;5039896;28;20047;-75
2022/06/24 12:02:46;;;;;;;11.40;9.52;;;;;;;;;;5063071;28;20041;-75
2022/06/24 12:05:12;;;;;;;11.30;10.10;;;;;;;;;;5053840;28;20044;-74
2022/06/24 12:07:38;;;;;;;13.13;10.20;;;;;;;;;;5048452;28;20044;-74
2022/06/24 12:10:06;;;;;;;12.98;9.73;;;;;;;;;;5070039;28;20047;-74
2022/06/24 12:12:32;;;;;;;13.38;10.73;;;;;;;;;;5037269;28;20116;-74
2022/06/24 12:14:58;;;;;;;11.77;9.60;;;;;;;;;;5067194;28;20051;-75
2022/06/24 12:17:25;;;;;;;12.40;10.40;;;;;;;;;;5040669;28;20545;-75
2022/06/24 12:20:01;;;;;;;11.27;10.07;;;;;;;;;;5038321;28;20039;-75
2022/06/24 12:22:28;;;;;;;12.85;9.82;;;;;;;;;;5087388;28;20041;-75
2022/06/24 12:25:10;;;;;;;11.85;9.30;;;;;;;;;;5102769;28;20036;-75
2022/06/24 12:27:38;;;;;;;11.98;9.50;;;;;;;;;;5067860;28;20048;-75
2022/06/24 12:30:04;;;;;;;12.50;9.00;;;;;;;;;;5063605;28;20102;-75
2022/06/24 12:32:51;;;;;;;12.35;10.05;;;;;;;;;;5069663;28;20074;-74
2022/06/24 12:35:29;;;;;;;11.88;9.98;;;;;;;;;;5057656;28;20049;-75
2022/06/24 12:37:55;;;;;;;10.85;9.32;;;;;;;;;;5064868;28;20543;-75
2022/06/24 12:40:22;;;;;;;11.90;9.55;;;;;;;;;;5066747;28;20056;-75
2022/06/24 12:43:04;;;;;;;10.88;8.85;;;;;;;;;;5065993;28;20040;-74
2022/06/24 12:45:34;;;;;;;12.20;8.40;;;;;;;;;;5065806;28;20567;-75
2022/06/24 12:50:55;;;;;;;10.43;8.68;;;;;;;;;;5069308;28;20048;-75
2022/06/24 12:53:21;;;;;;;7.70;6.90;;;;;;;;;;5060395;28;20174;-75
2022/06/24 12:55:47;;;;;;;8.07;6.80;;;;;;;;;;5069628;28;20047;-75
2022/06/24 12:58:13;;;;;;;7.38;5.88;;;;;;;;;;5069498;28;20033;-74
2022/06/24 13:00:39;;;;;;;7.55;6.40;;;;;;;;;;5045391;28;20119;-74
2022/06/24 13:03:05;;;;;;;9.48;6.95;;;;;;;;;;5052223;28;20048;-75
2022/06/24 13:05:31;;;;;;;11.93;8.82;;;;;;;;;;5058399;28;20040;-75
2022/06/24 13:07:57;;;;;;;8.55;7.45;;;;;;;;;;5069547;28;20086;-75
2022/06/24 13:10:24;;;;;;;8.18;6.78;;;;;;;;;;5100294;28;20033;-75
2022/06/24 13:12:50;;;;;;;11.30;8.05;;;;;;;;;;5069551;28;20551;-75
2022/06/24 13:15:17;;;;;;;9.93;8.27;;;;;;;;;;5066523;28;20094;-76
2022/06/24 13:17:43;;;;;;;10.10;8.57;;;;;;;;;;5067541;28;20051;-74
2022/06/24 13:20:11;;;;;;;10.30;7.97;;;;;;;;;;5069601;28;20048;-75
2022/06/24 13:22:37;;;;;;;11.52;9.52;;;;;;;;;;5069155;28;20080;-75
2022/06/24 13:25:05;;;;;;;12.38;9.55;;;;;;;;;;5069129;28;20094;-74
2022/06/24 13:27:31;;;;;;;10.25;8.65;;;;;;;;;;5068928;28;20052;-74
2022/06/24 13:29:58;;;;;;;10.02;7.60;;;;;;;;;;5062432;28;20123;-75
2022/06/24 13:32:24;;;;;;;7.50;6.50;;;;;;;;;;5069063;28;20048;-74
2022/06/24 13:34:51;;;;;;;8.43;7.50;;;;;;;;;;5069220;28;20121;-75
2022/06/24 13:37:17;;;;;;;11.35;8.70;;;;;;;;;;5068755;28;20044;-75
2022/06/24 13:39:43;;;;;;;9.50;8.50;;;;;;;;;;5071057;28;20040;-75
2022/06/24 13:42:09;;;;;;;10.75;8.65;;;;;;;;;;5069138;28;20117;-75
2022/06/24 13:44:36;;;;;;;12.93;9.75;;;;;;;;;;5052145;28;20052;-75
2022/06/24 13:47:02;;;;;;;9.50;8.40;;;;;;;;;;5069514;28;20064;-75
2022/06/24 13:49:29;;;;;;;11.68;9.70;;;;;;;;;;5070095;28;20499;-74
2022/06/24 13:51:55;;;;;;;11.48;9.20;;;;;;;;;;5052741;28;20053;-74
2022/06/24 13:54:21;;;;;;;11.48;9.10;;;;;;;;;;5068960;28;20040;-73
2022/06/24 13:56:47;;;;;;;11.02;8.07;;;;;;;;;;5069139;28;20505;-75
2022/06/24 13:59:16;;;;;;;11.63;10.27;;;;;;;;;;5067643;28;20135;-75
2022/06/24 14:01:42;;;;;;;12.70;11.00;;;;;;;;;;5069255;28;20044;-75
2022/06/24 14:04:08;;;;;;;13.13;11.73;;;;;;;;;;5052735;28;20062;-74
2022/06/24 14:06:34;;;;;;;15.07;12.65;;;;;;;;;;5070026;28;20120;-74
2022/06/24 14:09:00;;;;;;;12.80;11.50;;;;;;;;;;5069462;28;20500;-75
2022/06/24 14:11:27;;;;;;;14.88;13.30;;;;;;;;;;5052014;28;20455;-74
2022/06/24 14:13:54;;;;;;;15.60;14.10;;;;;;;;;;5052250;28;20040;-74
2022/06/24 14:16:20;;;;;;;15.98;13.63;;;;;;;;;;5069201;28;20102;-74
2022/06/24 14:18:46;;;;;;;17.90;13.00;;;;;;;;;;5071227;28;20120;-74
2022/06/24 14:21:12;;;;;;;13.70;12.40;;;;;;;;;;5073715;28;20048;-74
2022/06/24 14:24:39;;;;;;;13.73;12.32;;;;;;;;;;5055844;28;20836;-74
2022/06/24 14:26:34;;;;;;;16.13;12.45;;;;;;;;;;5058818;28;20076;-74
2022/06/24 14:29:00;;;;;;;14.57;12.60;;;;;;;;;;5054132;28;20052;-74
2022/06/24 14:31:26;;;;;;;18.55;15.93;;;;;;;;;;5063821;28;20336;-74
2022/06/24 14:33:52;;;;;;;17.90;15.55;;;;;;;;;;5073537;28;20028;-74
2022/06/24 14:36:22;;;;;;;18.45;16.52;;;;;;;;;;5073742;28;20079;-74
2022/06/24 14:41:32;;;;;;;19.13;16.80;;;;;;;;;;5071992;28;20465;-73
2022/06/24 14:43:58;;;;;;;19.13;17.13;;;;;;;;;;5072274;28;20412;-74
2022/06/24 14:46:25;;;;;;;20.13;17.88;;;;;;;;;;5055431;28;20496;-74
2022/06/24 14:48:51;;;;;;;27.25;24.50;;;;;;;;;;5065810;28;20532;-74